Time;durP1;ratioP1;P1;durP2;ratioP2;P2;SDS_P1;SDS_P2;PMS_P1;PMS_P2;Temp;Humidity;BMP_temperature;BMP_pressure;BME280_temperature;BME280_humidity;BME280_pressure;Samples;Min_cycle;Max_cycle;Signal;HPM_P1;HPM_P2
2022/06/25 00:01:41;;;;;;;11.32;3.08;;;;;;;;;;5053325;28;20040;-41
2022/06/25 00:05:27;;;;;;;7.10;2.58;;;;;;;;;;5053421;28;20033;-42
2022/06/25 00:06:52;;;;;;;7.45;2.38;;;;;;;;;;5053187;28;20098;-42
2022/06/25 00:09:17;;;;;;;3.60;2.15;;;;;;;;;;5053199;28;20024;-41
2022/06/25 00:14:27;;;;;;;12.32;3.65;;;;;;;;;;5053123;28;20160;-41
2022/06/25 00:16:52;;;;;;;3.53;1.98;;;;;;;;;;5053144;28;20530;-41
2022/06/25 00:19:18;;;;;;;8.90;2.95;;;;;;;;;;5053533;28;20112;-41
2022/06/25 00:21:43;;;;;;;10.95;2.67;;;;;;;;;;5052785;28;20108;-41
2022/06/25 00:24:08;;;;;;;9.55;2.70;;;;;;;;;;5053105;28;20051;-42
2022/06/25 00:26:34;;;;;;;7.72;2.05;;;;;;;;;;5052770;28;20030;-41
2022/06/25 00:29:00;;;;;;;6.93;2.25;;;;;;;;;;5052701;28;20037;-42
2022/06/25 00:31:25;;;;;;;5.95;2.25;;;;;;;;;;5052759;28;20013;-41
2022/06/25 00:33:50;;;;;;;8.73;2.67;;;;;;;;;;5052926;28;20044;-41
2022/06/25 00:36:16;;;;;;;11.52;3.03;;;;;;;;;;5052643;28;20466;-41
2022/06/25 00:38:41;;;;;;;9.57;3.33;;;;;;;;;;5052638;28;20021;-42
2022/06/25 00:41:07;;;;;;;10.45;2.58;;;;;;;;;;5052554;28;20399;-43
2022/06/25 00:43:37;;;;;;;9.15;3.75;;;;;;;;;;5052722;28;20039;-42
2022/06/25 00:46:02;;;;;;;10.00;2.85;;;;;;;;;;5052347;28;20383;-41
2022/06/25 00:48:27;;;;;;;5.38;3.13;;;;;;;;;;5052477;28;20044;-41
2022/06/25 00:50:56;;;;;;;6.13;2.85;;;;;;;;;;5052500;28;20029;-41
2022/06/25 00:53:22;;;;;;;6.15;2.47;;;;;;;;;;5052426;28;20041;-41
2022/06/25 00:55:49;;;;;;;6.38;2.80;;;;;;;;;;5050911;28;20032;-41
2022/06/25 00:58:18;;;;;;;10.05;2.70;;;;;;;;;;5052179;28;20054;-41
2022/06/25 01:00:44;;;;;;;7.53;2.28;;;;;;;;;;5052428;28;20028;-41
2022/06/25 01:03:09;;;;;;;7.53;2.75;;;;;;;;;;5052005;28;20032;-41
2022/06/25 01:05:36;;;;;;;8.30;2.55;;;;;;;;;;5052351;28;20036;-41
2022/06/25 01:08:01;;;;;;;4.00;2.90;;;;;;;;;;5051920;28;20025;-42
2022/06/25 01:10:27;;;;;;;2.40;2.08;;;;;;;;;;5050331;28;20024;-41
2022/06/25 01:12:52;;;;;;;7.97;2.83;;;;;;;;;;5052134;28;20039;-41
2022/06/25 01:15:19;;;;;;;5.20;2.72;;;;;;;;;;5050478;28;20499;-41
2022/06/25 01:17:52;;;;;;;6.38;2.53;;;;;;;;;;5050519;28;20025;-41
2022/06/25 01:20:20;;;;;;;6.43;1.73;;;;;;;;;;5050551;28;20037;-42
2022/06/25 01:22:46;;;;;;;9.50;3.47;;;;;;;;;;5052070;28;20028;-42
2022/06/25 01:25:12;;;;;;;5.03;2.42;;;;;;;;;;5051713;28;20094;-42
2022/06/25 01:27:38;;;;;;;6.50;2.53;;;;;;;;;;5052130;28;20021;-41
2022/06/25 01:30:05;;;;;;;6.10;3.50;;;;;;;;;;5051717;28;20033;-42
2022/06/25 01:32:30;;;;;;;12.90;2.97;;;;;;;;;;5051633;28;20608;-43
2022/06/25 01:34:56;;;;;;;8.55;3.60;;;;;;;;;;5050285;28;20119;-41
2022/06/25 01:37:21;;;;;;;5.88;3.22;;;;;;;;;;5051579;28;20021;-42
2022/06/25 01:39:54;;;;;;;8.95;2.47;;;;;;;;;;5050223;28;20037;-41
2022/06/25 01:45:04;;;;;;;6.90;3.42;;;;;;;;;;5051371;28;20049;-41
2022/06/25 01:47:29;;;;;;;9.70;2.92;;;;;;;;;;5051417;28;20017;-42
2022/06/25 01:49:55;;;;;;;14.57;3.08;;;;;;;;;;5051345;28;20029;-42
2022/06/25 01:52:20;;;;;;;7.03;3.45;;;;;;;;;;5051463;28;20059;-42
2022/06/25 01:54:45;;;;;;;5.10;2.40;;;;;;;;;;5051237;28;20398;-41
2022/06/25 01:57:13;;;;;;;12.43;3.50;;;;;;;;;;5049985;28;20024;-41
2022/06/25 01:59:38;;;;;;;12.80;3.15;;;;;;;;;;5050059;28;20032;-42
2022/06/25 02:02:04;;;;;;;18.17;3.17;;;;;;;;;;5050159;28;20021;-42
2022/06/25 02:04:29;;;;;;;8.15;2.97;;;;;;;;;;5049975;28;20560;-41
2022/06/25 02:06:55;;;;;;;8.52;2.92;;;;;;;;;;5033268;28;20383;-42
2022/06/25 02:09:20;;;;;;;11.32;2.67;;;;;;;;;;5049877;28;20032;-41
2022/06/25 02:11:45;;;;;;;6.55;2.22;;;;;;;;;;5049909;28;20025;-42
2022/06/25 02:14:11;;;;;;;11.55;3.13;;;;;;;;;;5049601;28;20041;-43
2022/06/25 02:16:36;;;;;;;9.30;2.80;;;;;;;;;;5050300;28;20028;-41
2022/06/25 02:19:03;;;;;;;5.00;2.50;;;;;;;;;;5048995;28;20029;-45
2022/06/25 02:21:31;;;;;;;3.70;1.85;;;;;;;;;;5049732;28;20010;-42
2022/06/25 02:23:56;;;;;;;9.48;2.55;;;;;;;;;;5052358;28;20037;-42
2022/06/25 02:26:22;;;;;;;4.07;2.55;;;;;;;;;;5052463;28;20024;-42
2022/06/25 02:28:47;;;;;;;5.30;2.70;;;;;;;;;;5053980;28;20045;-42
2022/06/25 02:31:12;;;;;;;10.90;2.63;;;;;;;;;;5052395;28;20702;-41
2022/06/25 02:33:38;;;;;;;5.32;2.80;;;;;;;;;;5052342;28;20021;-42
2022/06/25 02:36:04;;;;;;;7.75;2.35;;;;;;;;;;5052252;28;20366;-42
2022/06/25 02:38:29;;;;;;;6.45;2.53;;;;;;;;;;5035743;28;20036;-42
2022/06/25 02:40:56;;;;;;;8.60;2.80;;;;;;;;;;5052138;28;20063;-42
2022/06/25 02:43:24;;;;;;;8.63;2.97;;;;;;;;;;5052152;28;20391;-42
2022/06/25 02:46:09;;;;;;;11.48;3.22;;;;;;;;;;5051937;28;20086;-42
2022/06/25 02:48:34;;;;;;;6.88;2.20;;;;;;;;;;5052209;28;20037;-42
2022/06/25 02:51:00;;;;;;;6.88;3.90;;;;;;;;;;5051947;28;20031;-41
2022/06/25 02:53:26;;;;;;;12.07;3.22;;;;;;;;;;5052085;28;20399;-41
2022/06/25 02:58:55;;;;;;;10.15;3.80;;;;;;;;;;5051984;28;20075;-41
2022/06/25 03:01:26;;;;;;;11.18;3.40;;;;;;;;;;5052200;28;20033;-41
2022/06/25 03:03:52;;;;;;;6.10;2.88;;;;;;;;;;5051756;28;20047;-42
2022/06/25 03:06:18;;;;;;;6.43;3.13;;;;;;;;;;5051709;28;20535;-43
2022/06/25 03:08:44;;;;;;;8.43;3.63;;;;;;;;;;5051892;28;20067;-41
2022/06/25 03:11:09;;;;;;;13.35;3.10;;;;;;;;;;5051702;28;20371;-42
2022/06/25 03:13:36;;;;;;;6.05;2.78;;;;;;;;;;5051766;28;20025;-41
2022/06/25 03:16:06;;;;;;;10.98;2.88;;;;;;;;;;5010158;28;1211957;-41
2022/06/25 03:18:33;;;;;;;6.03;2.55;;;;;;;;;;5054473;28;20033;-42
2022/06/25 03:21:17;;;;;;;7.95;3.78;;;;;;;;;;5054426;28;20124;-41
2022/06/25 03:23:44;;;;;;;5.63;2.50;;;;;;;;;;5052736;28;20044;-41
2022/06/25 03:26:10;;;;;;;5.22;2.80;;;;;;;;;;5052642;28;20052;-41
2022/06/25 03:28:36;;;;;;;10.73;4.18;;;;;;;;;;5052746;28;20063;-41
2022/06/25 03:31:02;;;;;;;9.93;2.30;;;;;;;;;;5052591;28;20021;-42
2022/06/25 03:33:28;;;;;;;11.48;3.20;;;;;;;;;;5052191;28;20099;-41
2022/06/25 03:36:16;;;;;;;15.85;3.50;;;;;;;;;;5052594;28;20044;-41
2022/06/25 03:38:44;;;;;;;20.98;3.42;;;;;;;;;;5053826;28;20024;-41
2022/06/25 03:44:08;;;;;;;11.68;2.38;;;;;;;;;;5052234;28;20045;-42
2022/06/25 03:46:34;;;;;;;12.68;3.30;;;;;;;;;;5052419;28;20035;-42
2022/06/25 03:49:00;;;;;;;12.13;3.13;;;;;;;;;;5052151;28;20032;-42
2022/06/25 03:51:46;;;;;;;5.88;2.45;;;;;;;;;;5052260;28;20479;-42
2022/06/25 03:54:11;;;;;;;7.18;2.47;;;;;;;;;;5052194;28;20048;-42
2022/06/25 03:56:37;;;;;;;6.85;3.00;;;;;;;;;;5052125;28;20055;-41
2022/06/25 03:59:03;;;;;;;4.28;2.15;;;;;;;;;;5053357;28;20025;-42
2022/06/25 04:01:28;;;;;;;13.93;2.78;;;;;;;;;;5052089;28;20024;-42
2022/06/25 04:03:54;;;;;;;7.53;2.85;;;;;;;;;;5051881;28;20372;-42
2022/06/25 04:06:20;;;;;;;5.13;3.08;;;;;;;;;;5053218;28;20090;-41
2022/06/25 04:08:48;;;;;;;9.35;2.90;;;;;;;;;;5053450;28;20037;-42
2022/06/25 04:11:15;;;;;;;12.07;2.75;;;;;;;;;;5051897;28;20021;-41
2022/06/25 04:13:44;;;;;;;8.25;2.70;;;;;;;;;;5051935;28;20028;-42
2022/06/25 04:16:11;;;;;;;7.80;3.13;;;;;;;;;;5051803;28;20079;-42
2022/06/25 04:18:37;;;;;;;16.33;4.03;;;;;;;;;;5051801;28;20479;-42
2022/06/25 04:21:03;;;;;;;4.75;3.00;;;;;;;;;;5051690;28;20493;-41
2022/06/25 04:23:30;;;;;;;6.53;2.92;;;;;;;;;;5051565;28;20085;-41
2022/06/25 04:25:55;;;;;;;10.38;2.70;;;;;;;;;;5051542;28;20025;-42
2022/06/25 04:31:24;;;;;;;10.13;3.22;;;;;;;;;;5052717;28;20487;-42
2022/06/25 04:33:51;;;;;;;11.57;3.00;;;;;;;;;;5051462;28;20032;-42
2022/06/25 04:36:17;;;;;;;8.77;3.13;;;;;;;;;;5051450;28;20025;-42
2022/06/25 04:38:49;;;;;;;4.53;2.47;;;;;;;;;;5051255;28;20483;-42
2022/06/25 04:41:15;;;;;;;5.15;2.70;;;;;;;;;;5051450;28;20037;-42
2022/06/25 04:43:43;;;;;;;11.70;2.63;;;;;;;;;;5050769;28;20066;-41
2022/06/25 04:46:13;;;;;;;7.57;2.80;;;;;;;;;;5050880;28;20498;-42
2022/06/25 04:48:41;;;;;;;5.25;3.42;;;;;;;;;;5051213;28;20051;-42
2022/06/25 04:51:22;;;;;;;13.35;3.83;;;;;;;;;;5052474;28;20036;-42
2022/06/25 04:53:57;;;;;;;4.40;2.45;;;;;;;;;;5050974;28;20082;-42
2022/06/25 04:56:43;;;;;;;7.57;2.67;;;;;;;;;;5052171;28;20089;-42
2022/06/25 04:59:10;;;;;;;6.63;2.95;;;;;;;;;;5050890;28;20033;-42
2022/06/25 05:01:54;;;;;;;7.85;3.45;;;;;;;;;;5052483;28;20395;-41
2022/06/25 05:04:41;;;;;;;3.80;3.40;;;;;;;;;;5050863;28;20037;-41
2022/06/25 05:07:07;;;;;;;9.07;3.00;;;;;;;;;;5050543;28;20506;-42
2022/06/25 05:09:32;;;;;;;6.78;2.85;;;;;;;;;;5050786;28;20028;-41
2022/06/25 05:11:58;;;;;;;5.78;3.10;;;;;;;;;;5050682;28;20032;-42
2022/06/25 05:14:24;;;;;;;9.32;2.38;;;;;;;;;;5050474;28;20124;-42
2022/06/25 05:16:49;;;;;;;9.93;3.25;;;;;;;;;;5050587;28;20036;-42
2022/06/25 05:19:15;;;;;;;8.35;2.65;;;;;;;;;;5050737;28;20028;-42
2022/06/25 05:21:41;;;;;;;8.80;2.63;;;;;;;;;;5050505;28;20028;-42
2022/06/25 05:24:08;;;;;;;11.25;2.65;;;;;;;;;;5050414;28;20074;-42
2022/06/25 05:26:35;;;;;;;9.32;3.20;;;;;;;;;;5050460;28;20098;-41
2022/06/25 05:29:01;;;;;;;6.72;3.65;;;;;;;;;;5050380;28;20069;-41
2022/06/25 05:31:26;;;;;;;8.13;2.60;;;;;;;;;;5052043;28;20482;-42
2022/06/25 05:33:53;;;;;;;5.35;2.75;;;;;;;;;;5051827;28;20028;-42
2022/06/25 05:36:19;;;;;;;8.55;2.85;;;;;;;;;;5051798;28;20387;-42
2022/06/25 05:38:45;;;;;;;15.05;3.63;;;;;;;;;;5051861;28;20107;-42
2022/06/25 05:41:10;;;;;;;4.90;2.38;;;;;;;;;;5050235;28;20025;-41
2022/06/25 05:43:36;;;;;;;5.85;2.80;;;;;;;;;;5051708;28;20482;-41
2022/06/25 05:46:02;;;;;;;7.60;3.65;;;;;;;;;;5051621;28;20464;-42
2022/06/25 05:48:28;;;;;;;10.38;3.08;;;;;;;;;;5050245;28;20479;-42
2022/06/25 05:50:53;;;;;;;11.90;3.85;;;;;;;;;;5051309;28;20043;-41
2022/06/25 05:53:19;;;;;;;9.32;2.83;;;;;;;;;;5051377;28;20096;-41
2022/06/25 05:55:45;;;;;;;7.60;2.15;;;;;;;;;;5051511;28;20025;-42
2022/06/25 05:58:13;;;;;;;10.20;2.47;;;;;;;;;;5051167;28;20104;-42
2022/06/25 06:00:39;;;;;;;11.80;3.25;;;;;;;;;;5051637;28;20096;-42
2022/06/25 06:03:04;;;;;;;10.45;3.47;;;;;;;;;;5051394;28;20453;-43
2022/06/25 06:05:31;;;;;;;7.13;3.60;;;;;;;;;;5051118;28;20123;-42
2022/06/25 06:07:57;;;;;;;4.60;2.70;;;;;;;;;;5049940;28;20021;-41
2022/06/25 06:10:22;;;;;;;5.65;2.75;;;;;;;;;;5051123;28;20398;-41
2022/06/25 06:12:48;;;;;;;6.53;2.63;;;;;;;;;;5051497;28;20029;-42
2022/06/25 06:15:14;;;;;;;10.57;3.42;;;;;;;;;;5050989;28;20041;-41
2022/06/25 06:17:39;;;;;;;4.78;2.17;;;;;;;;;;5051063;28;20511;-41
2022/06/25 06:20:06;;;;;;;10.30;2.90;;;;;;;;;;5051028;28;20093;-41
2022/06/25 06:22:31;;;;;;;7.72;2.78;;;;;;;;;;5049805;28;20371;-42
2022/06/25 06:24:57;;;;;;;5.80;2.38;;;;;;;;;;5050959;28;20029;-41
2022/06/25 06:27:22;;;;;;;5.35;2.35;;;;;;;;;;5051019;28;20021;-42
2022/06/25 06:29:48;;;;;;;11.52;2.38;;;;;;;;;;5051027;28;20041;-41
2022/06/25 06:32:14;;;;;;;7.30;2.78;;;;;;;;;;5050998;28;20021;-41
2022/06/25 06:34:40;;;;;;;9.38;2.42;;;;;;;;;;5050958;28;20086;-42
2022/06/25 06:37:05;;;;;;;5.32;2.83;;;;;;;;;;5051145;28;20378;-42
2022/06/25 06:39:31;;;;;;;5.45;2.33;;;;;;;;;;5050886;28;20075;-41
2022/06/25 06:41:57;;;;;;;7.57;1.70;;;;;;;;;;5051120;28;20017;-42
2022/06/25 06:44:22;;;;;;;8.52;2.85;;;;;;;;;;5051115;28;20757;-41
2022/06/25 06:46:48;;;;;;;11.07;3.53;;;;;;;;;;5050785;28;20517;-42
2022/06/25 06:49:13;;;;;;;12.30;2.85;;;;;;;;;;5050692;28;20086;-41
2022/06/25 06:51:44;;;;;;;5.43;2.80;;;;;;;;;;5050949;28;20800;-41
2022/06/25 06:54:12;;;;;;;4.78;2.10;;;;;;;;;;5050672;28;20086;-42
2022/06/25 06:56:38;;;;;;;3.00;2.55;;;;;;;;;;5049543;28;20025;-41
2022/06/25 06:59:04;;;;;;;8.13;2.15;;;;;;;;;;5050941;28;20057;-41
2022/06/25 07:01:29;;;;;;;7.57;2.70;;;;;;;;;;5050683;28;20379;-41
2022/06/25 07:03:55;;;;;;;3.25;2.30;;;;;;;;;;5050581;28;20036;-41
2022/06/25 07:06:21;;;;;;;8.48;2.17;;;;;;;;;;5050562;28;20021;-41
2022/06/25 07:08:47;;;;;;;11.70;3.30;;;;;;;;;;5052163;28;20107;-42
2022/06/25 07:11:28;;;;;;;9.77;2.28;;;;;;;;;;5054292;28;20374;-41
2022/06/25 07:13:54;;;;;;;9.55;2.42;;;;;;;;;;5054492;28;20056;-41
2022/06/25 07:16:21;;;;;;;3.50;2.22;;;;;;;;;;5053972;28;20140;-41
2022/06/25 07:18:47;;;;;;;7.93;1.90;;;;;;;;;;5054264;28;20078;-41
2022/06/25 07:21:12;;;;;;;6.55;2.72;;;;;;;;;;5052714;28;20025;-42
2022/06/25 07:23:39;;;;;;;10.07;2.35;;;;;;;;;;5053997;28;20025;-41
2022/06/25 07:26:08;;;;;;;4.65;2.30;;;;;;;;;;5053948;28;20056;-42
2022/06/25 07:28:34;;;;;;;8.15;3.13;;;;;;;;;;5053886;28;20031;-41
2022/06/25 07:30:59;;;;;;;6.68;1.90;;;;;;;;;;5053816;28;20115;-41
2022/06/25 07:33:26;;;;;;;7.15;2.17;;;;;;;;;;5053958;28;20078;-41
2022/06/25 07:35:52;;;;;;;7.85;3.35;;;;;;;;;;5053654;28;20021;-41
2022/06/25 07:38:17;;;;;;;9.38;2.58;;;;;;;;;;5054214;28;20032;-42
2022/06/25 07:40:43;;;;;;;9.32;2.35;;;;;;;;;;5053699;28;20017;-41
2022/06/25 07:43:09;;;;;;;10.30;1.88;;;;;;;;;;5052394;28;20032;-41
2022/06/25 07:45:35;;;;;;;5.47;2.25;;;;;;;;;;5053897;28;20094;-41
2022/06/25 07:48:01;;;;;;;12.75;3.17;;;;;;;;;;5053612;28;20418;-41
2022/06/25 07:53:11;;;;;;;12.85;2.58;;;;;;;;;;5053300;28;20032;-41
2022/06/25 07:55:36;;;;;;;8.25;3.03;;;;;;;;;;5053502;28;20033;-41
2022/06/25 07:58:02;;;;;;;7.18;2.72;;;;;;;;;;5053294;28;20037;-41
2022/06/25 08:00:27;;;;;;;11.25;3.08;;;;;;;;;;5053743;28;20021;-42
2022/06/25 08:02:53;;;;;;;7.00;1.77;;;;;;;;;;5053551;28;20035;-42
2022/06/25 08:05:19;;;;;;;5.22;2.08;;;;;;;;;;5053083;28;20086;-42
2022/06/25 08:07:49;;;;;;;5.05;2.17;;;;;;;;;;5053632;28;20021;-42
2022/06/25 08:10:15;;;;;;;10.30;2.42;;;;;;;;;;5053160;28;20086;-42
2022/06/25 08:12:41;;;;;;;6.85;1.90;;;;;;;;;;5053110;28;20036;-41
2022/06/25 08:15:06;;;;;;;9.65;1.95;;;;;;;;;;5053071;28;20053;-42
2022/06/25 08:17:34;;;;;;;5.30;1.92;;;;;;;;;;5051801;28;20029;-42
2022/06/25 08:20:00;;;;;;;11.23;2.88;;;;;;;;;;5051771;28;20495;-42
2022/06/25 08:22:26;;;;;;;6.93;2.65;;;;;;;;;;5053099;28;20175;-42
2022/06/25 08:24:51;;;;;;;9.75;2.75;;;;;;;;;;5053078;28;20505;-42
2022/06/25 08:27:16;;;;;;;5.80;1.83;;;;;;;;;;5053128;28;20036;-42
2022/06/25 08:29:42;;;;;;;4.95;1.95;;;;;;;;;;5052842;28;20052;-42
2022/06/25 08:32:07;;;;;;;6.22;2.20;;;;;;;;;;5053036;28;20041;-42
2022/06/25 08:34:33;;;;;;;6.65;1.55;;;;;;;;;;5053021;28;20056;-41
2022/06/25 08:36:58;;;;;;;8.63;2.08;;;;;;;;;;5052581;28;20082;-42
2022/06/25 08:39:24;;;;;;;3.60;2.05;;;;;;;;;;5052985;28;20037;-41
2022/06/25 08:41:49;;;;;;;8.70;1.85;;;;;;;;;;5052672;28;20025;-42
2022/06/25 08:44:15;;;;;;;8.07;1.75;;;;;;;;;;5052743;28;20032;-41
2022/06/25 08:46:41;;;;;;;16.98;3.08;;;;;;;;;;5052465;28;20112;-42
2022/06/25 08:49:07;;;;;;;5.57;1.73;;;;;;;;;;5052349;28;20029;-42
2022/06/25 08:51:34;;;;;;;11.43;1.88;;;;;;;;;;5052825;28;20403;-42
2022/06/25 08:54:01;;;;;;;8.65;2.65;;;;;;;;;;5052256;28;20028;-41
2022/06/25 08:56:28;;;;;;;7.63;2.17;;;;;;;;;;5052612;28;20056;-41
2022/06/25 08:58:55;;;;;;;6.85;1.73;;;;;;;;;;5052279;28;20017;-41
2022/06/25 09:01:20;;;;;;;4.82;2.00;;;;;;;;;;5052193;28;20032;-42
2022/06/25 09:03:46;;;;;;;3.92;1.80;;;;;;;;;;5052291;28;20100;-43
2022/06/25 09:06:13;;;;;;;6.85;2.22;;;;;;;;;;5052362;28;20041;-41
2022/06/25 09:08:39;;;;;;;5.85;1.38;;;;;;;;;;5052394;28;20037;-42
2022/06/25 09:11:05;;;;;;;7.57;1.95;;;;;;;;;;5052309;28;20387;-42
2022/06/25 09:13:31;;;;;;;3.53;1.65;;;;;;;;;;5052058;28;20021;-41
2022/06/25 09:15:57;;;;;;;4.07;1.45;;;;;;;;;;5051781;28;20045;-42
2022/06/25 09:18:23;;;;;;;4.00;1.67;;;;;;;;;;5050660;28;20495;-42
2022/06/25 09:20:56;;;;;;;12.63;2.00;;;;;;;;;;5051958;28;20483;-42
2022/06/25 09:23:21;;;;;;;;;;;;;;;;;;5052249;28;20121;-42
2022/06/25 09:25:58;;;;;;;4.93;1.73;;;;;;;;;;5051754;28;20003;-41
2022/06/25 09:28:32;;;;;;;4.05;1.40;;;;;;;;;;5051870;28;20039;-42
2022/06/25 09:30:57;;;;;;;8.32;1.35;;;;;;;;;;5051528;28;20387;-42
2022/06/25 09:33:23;;;;;;;12.35;2.10;;;;;;;;;;5051738;28;20051;-42
2022/06/25 09:35:50;;;;;;;5.43;1.65;;;;;;;;;;5051863;28;20104;-41
2022/06/25 09:38:16;;;;;;;4.00;1.55;;;;;;;;;;5051609;28;20075;-42
2022/06/25 09:40:49;;;;;;;3.53;1.33;;;;;;;;;;5051878;28;20025;-42
2022/06/25 09:43:16;;;;;;;6.07;1.40;;;;;;;;;;5051704;28;20025;-42
2022/06/25 09:45:45;;;;;;;5.78;1.88;;;;;;;;;;5051356;28;20121;-42
2022/06/25 09:48:20;;;;;;;4.85;1.83;;;;;;;;;;5051418;28;20021;-41
2022/06/25 09:51:04;;;;;;;7.20;2.28;;;;;;;;;;5051668;28;20037;-42
2022/06/25 09:53:30;;;;;;;6.55;2.20;;;;;;;;;;5051695;28;20033;-41
2022/06/25 09:55:56;;;;;;;1.58;1.15;;;;;;;;;;5051513;28;20108;-42
2022/06/25 09:58:22;;;;;;;3.08;1.67;;;;;;;;;;5051312;28;20021;-42
2022/06/25 10:00:48;;;;;;;3.00;1.20;;;;;;;;;;5051945;28;20086;-42
2022/06/25 10:03:14;;;;;;;6.15;2.08;;;;;;;;;;5051110;28;20068;-42
2022/06/25 10:05:40;;;;;;;5.15;1.90;;;;;;;;;;5051172;28;20029;-42
2022/06/25 10:08:11;;;;;;;5.93;1.58;;;;;;;;;;5051095;28;20238;-42
2022/06/25 10:10:38;;;;;;;5.38;2.05;;;;;;;;;;5050018;28;20041;-42
2022/06/25 10:13:04;;;;;;;4.32;1.15;;;;;;;;;;5051077;28;20013;-42
2022/06/25 10:15:30;;;;;;;3.85;1.73;;;;;;;;;;5051077;28;20361;-42
2022/06/25 10:17:56;;;;;;;4.53;1.40;;;;;;;;;;5051110;28;20051;-42
2022/06/25 10:20:22;;;;;;;5.28;1.67;;;;;;;;;;5051371;28;20112;-44
2022/06/25 10:22:48;;;;;;;5.40;2.00;;;;;;;;;;5051196;28;20489;-42
2022/06/25 10:25:15;;;;;;;3.53;1.65;;;;;;;;;;5049757;28;20147;-42
2022/06/25 10:27:44;;;;;;;2.17;1.50;;;;;;;;;;5050959;28;20103;-42
2022/06/25 10:30:11;;;;;;;4.57;2.08;;;;;;;;;;5050974;28;20428;-41
2022/06/25 10:32:46;;;;;;;8.60;1.77;;;;;;;;;;5051021;28;20021;-42
2022/06/25 10:35:32;;;;;;;9.18;3.67;;;;;;;;;;5051147;28;20021;-42
2022/06/25 10:37:59;;;;;;;4.30;2.45;;;;;;;;;;5049752;28;20048;-41
2022/06/25 10:40:24;;;;;;;4.10;1.73;;;;;;;;;;5050950;28;20044;-41
2022/06/25 10:42:59;;;;;;;4.13;2.20;;;;;;;;;;5052188;28;20025;-42
2022/06/25 10:45:24;;;;;;;2.40;1.35;;;;;;;;;;5055048;28;20048;-41
2022/06/25 10:47:50;;;;;;;5.40;1.48;;;;;;;;;;5054692;28;20016;-42
2022/06/25 10:50:22;;;;;;;5.82;1.67;;;;;;;;;;5054666;28;20107;-42
2022/06/25 10:53:06;;;;;;;3.70;1.35;;;;;;;;;;5055089;28;20223;-42
2022/06/25 10:55:35;;;;;;;4.97;1.25;;;;;;;;;;5054865;28;20044;-42
2022/06/25 10:58:10;;;;;;;4.05;1.38;;;;;;;;;;5053287;28;20029;-41
2022/06/25 11:00:49;;;;;;;7.78;1.50;;;;;;;;;;5054939;28;20025;-42
2022/06/25 11:03:15;;;;;;;4.57;1.60;;;;;;;;;;5054698;28;20510;-41
2022/06/25 11:05:41;;;;;;;4.50;1.30;;;;;;;;;;5054398;28;20028;-42
2022/06/25 11:08:07;;;;;;;5.95;1.48;;;;;;;;;;5054413;28;20070;-42
2022/06/25 11:10:34;;;;;;;2.40;1.25;;;;;;;;;;5054431;28;20478;-42
2022/06/25 11:13:00;;;;;;;6.20;1.60;;;;;;;;;;5054769;28;20107;-42
2022/06/25 11:15:26;;;;;;;1.08;0.95;;;;;;;;;;5054145;28;20578;-43
2022/06/25 11:17:51;;;;;;;2.17;0.98;;;;;;;;;;5054216;28;20051;-42
2022/06/25 11:20:17;;;;;;;7.13;1.52;;;;;;;;;;5054188;28;20025;-42
2022/06/25 11:22:50;;;;;;;1.45;1.10;;;;;;;;;;5054480;28;20032;-41
2022/06/25 11:30:49;;;;;;;4.28;1.27;;;;;;;;;;5054089;28;20041;-41
2022/06/25 11:33:15;;;;;;;5.20;1.00;;;;;;;;;;5053860;28;20017;-41
2022/06/25 11:35:44;;;;;;;3.15;1.00;;;;;;;;;;5053845;28;20036;-41
2022/06/25 11:38:27;;;;;;;3.78;1.63;;;;;;;;;;5053742;28;20017;-42
2022/06/25 11:40:54;;;;;;;5.43;0.90;;;;;;;;;;5053954;28;20383;-41
2022/06/25 11:43:19;;;;;;;2.78;1.10;;;;;;;;;;5053796;28;20148;-41
2022/06/25 11:45:58;;;;;;;2.95;1.02;;;;;;;;;;5053654;28;20124;-41
2022/06/25 11:48:26;;;;;;;1.58;1.10;;;;;;;;;;5053761;28;20021;-41
2022/06/25 11:50:56;;;;;;;7.93;1.45;;;;;;;;;;5053624;28;20502;-41
2022/06/25 11:53:21;;;;;;;3.70;0.90;;;;;;;;;;5053842;28;20056;-41
2022/06/25 11:56:00;;;;;;;3.17;1.52;;;;;;;;;;5053515;28;20471;-42
2022/06/25 11:58:27;;;;;;;3.63;1.20;;;;;;;;;;5053517;28;20033;-42
2022/06/25 12:00:56;;;;;;;3.63;1.27;;;;;;;;;;5053700;28;20017;-42
2022/06/25 12:03:25;;;;;;;2.47;1.13;;;;;;;;;;5053354;28;20044;-41
2022/06/25 12:05:54;;;;;;;4.53;1.25;;;;;;;;;;5053244;28;20560;-42
2022/06/25 12:08:21;;;;;;;3.33;1.45;;;;;;;;;;5053595;28;20028;-41
2022/06/25 12:10:48;;;;;;;2.53;1.08;;;;;;;;;;5053367;28;20069;-41
2022/06/25 12:13:17;;;;;;;5.10;1.33;;;;;;;;;;5053017;28;20488;-41
2022/06/25 12:15:43;;;;;;;7.72;1.30;;;;;;;;;;5053030;28;20175;-41
2022/06/25 12:18:14;;;;;;;5.07;1.60;;;;;;;;;;5051767;28;20477;-41
2022/06/25 12:20:54;;;;;;;2.83;1.10;;;;;;;;;;5053005;28;20051;-41
2022/06/25 12:23:20;;;;;;;8.80;1.38;;;;;;;;;;5052979;28;20037;-41
2022/06/25 12:25:49;;;;;;;2.05;1.10;;;;;;;;;;5051516;28;20128;-41
2022/06/25 12:28:32;;;;;;;3.72;1.33;;;;;;;;;;5052739;28;20115;-41
2022/06/25 12:31:07;;;;;;;5.78;1.83;;;;;;;;;;5052879;28;20044;-41
2022/06/25 12:33:33;;;;;;;1.40;1.08;;;;;;;;;;5051908;28;20115;-41
2022/06/25 12:35:58;;;;;;;1.92;1.67;;;;;;;;;;5052965;28;20128;-41
2022/06/25 12:38:24;;;;;;;4.30;1.58;;;;;;;;;;5052785;28;20032;-41
2022/06/25 12:40:53;;;;;;;4.38;2.00;;;;;;;;;;5052962;28;20070;-41
2022/06/25 12:43:19;;;;;;;3.03;1.25;;;;;;;;;;5052535;28;20029;-41
2022/06/25 12:45:46;;;;;;;8.55;1.48;;;;;;;;;;5052758;28;20048;-42
2022/06/25 12:48:12;;;;;;;3.42;1.25;;;;;;;;;;5052436;28;20486;-42
2022/06/25 12:50:45;;;;;;;3.20;1.25;;;;;;;;;;5052582;28;20021;-42
2022/06/25 12:53:12;;;;;;;5.57;1.02;;;;;;;;;;5052385;28;20056;-41
2022/06/25 12:55:42;;;;;;;3.35;1.70;;;;;;;;;;5052396;28;20052;-41
2022/06/25 12:58:10;;;;;;;4.57;1.10;;;;;;;;;;5052285;28;20033;-42
2022/06/25 13:00:37;;;;;;;3.47;1.30;;;;;;;;;;5052452;28;20039;-42
2022/06/25 13:03:06;;;;;;;6.03;1.20;;;;;;;;;;5052373;28;20032;-41
2022/06/25 13:05:32;;;;;;;5.70;1.58;;;;;;;;;;5051801;28;20086;-42
2022/06/25 13:07:58;;;;;;;3.40;1.15;;;;;;;;;;5052241;28;20598;-41
2022/06/25 13:10:25;;;;;;;2.85;1.20;;;;;;;;;;5052081;28;20028;-41
2022/06/25 13:12:53;;;;;;;2.85;1.02;;;;;;;;;;5052120;28;20118;-42
2022/06/25 13:15:19;;;;;;;5.97;1.60;;;;;;;;;;5051498;28;20049;-41
2022/06/25 13:17:45;;;;;;;3.53;1.00;;;;;;;;;;5051976;28;20787;-41
2022/06/25 13:20:15;;;;;;;3.28;1.33;;;;;;;;;;5051888;28;20421;-42
2022/06/25 13:22:42;;;;;;;1.73;0.98;;;;;;;;;;5051777;28;20029;-41
2022/06/25 13:25:12;;;;;;;4.03;1.67;;;;;;;;;;5051714;28;20711;-41
2022/06/25 13:27:38;;;;;;;3.22;0.88;;;;;;;;;;5051795;28;20033;-42
2022/06/25 13:30:04;;;;;;;3.92;1.10;;;;;;;;;;5051822;28;20017;-42
2022/06/25 13:32:30;;;;;;;3.13;1.30;;;;;;;;;;5051706;28;20035;-42
2022/06/25 13:34:56;;;;;;;2.65;1.15;;;;;;;;;;5051612;28;20055;-42
2022/06/25 13:37:22;;;;;;;2.63;1.58;;;;;;;;;;5051697;28;20037;-42
2022/06/25 13:39:48;;;;;;;1.85;1.40;;;;;;;;;;5051901;28;20375;-42
2022/06/25 13:42:14;;;;;;;3.72;0.80;;;;;;;;;;5051541;28;20479;-41
2022/06/25 13:44:40;;;;;;;4.47;1.20;;;;;;;;;;5051364;28;20086;-41
2022/06/25 13:47:07;;;;;;;3.17;1.25;;;;;;;;;;5050223;28;20066;-41
2022/06/25 13:49:33;;;;;;;5.05;1.02;;;;;;;;;;5051513;28;20036;-41
2022/06/25 13:52:00;;;;;;;4.55;1.00;;;;;;;;;;5051642;28;20423;-41
2022/06/25 13:54:27;;;;;;;2.10;0.80;;;;;;;;;;5051464;28;20523;-42
2022/06/25 13:56:53;;;;;;;0.93;0.68;;;;;;;;;;5050111;28;20467;-44
2022/06/25 13:59:19;;;;;;;1.92;1.00;;;;;;;;;;5051094;28;20025;-42
2022/06/25 14:01:45;;;;;;;1.27;0.82;;;;;;;;;;5051278;28;20037;-41
2022/06/25 14:04:11;;;;;;;2.00;0.85;;;;;;;;;;5051126;28;20375;-41
2022/06/25 14:06:39;;;;;;;1.50;0.88;;;;;;;;;;5051248;28;20048;-42
2022/06/25 14:09:06;;;;;;;1.02;0.80;;;;;;;;;;5051162;28;20021;-41
2022/06/25 14:11:32;;;;;;;5.78;1.95;;;;;;;;;;5051108;28;20037;-42
2022/06/25 14:13:59;;;;;;;2.90;0.85;;;;;;;;;;5051135;28;20075;-41
2022/06/25 14:16:27;;;;;;;3.97;0.95;;;;;;;;;;5051700;28;20056;-41
2022/06/25 14:18:53;;;;;;;0.68;0.68;;;;;;;;;;5055418;28;20475;-41
2022/06/25 14:21:19;;;;;;;7.43;1.25;;;;;;;;;;5055189;28;20041;-41
2022/06/25 14:23:44;;;;;;;1.35;0.68;;;;;;;;;;5055034;28;20017;-42
2022/06/25 14:26:11;;;;;;;2.03;0.80;;;;;;;;;;5055870;28;20364;-41
2022/06/25 14:28:37;;;;;;;4.18;1.25;;;;;;;;;;5055177;28;20045;-41
2022/06/25 14:31:03;;;;;;;4.53;1.20;;;;;;;;;;5054981;28;20436;-42
2022/06/25 14:33:29;;;;;;;3.35;0.70;;;;;;;;;;5055142;28;20021;-42
2022/06/25 14:44:07;;;;;;;1.88;1.27;;;;;;;;;;5054688;28;20114;-41
2022/06/25 14:46:35;;;;;;;4.20;1.73;;;;;;;;;;5053677;28;20036;-42
2022/06/25 14:49:01;;;;;;;3.33;0.90;;;;;;;;;;5055049;28;20025;-42
2022/06/25 14:51:27;;;;;;;4.32;1.00;;;;;;;;;;5054630;28;20400;-41
2022/06/25 14:53:53;;;;;;;2.22;0.98;;;;;;;;;;5054711;28;20029;-42
2022/06/25 14:56:19;;;;;;;0.73;0.70;;;;;;;;;;5054578;28;20029;-41
2022/06/25 14:58:45;;;;;;;1.27;0.93;;;;;;;;;;5054751;28;20028;-41
2022/06/25 15:01:13;;;;;;;4.32;1.63;;;;;;;;;;5054525;28;20074;-41
2022/06/25 15:03:39;;;;;;;7.90;1.17;;;;;;;;;;5054583;28;20040;-41
2022/06/25 15:06:05;;;;;;;3.05;1.42;;;;;;;;;;5054328;28;20068;-42
2022/06/25 15:08:33;;;;;;;4.30;1.27;;;;;;;;;;5054511;28;20033;-42
2022/06/25 15:10:59;;;;;;;3.72;1.75;;;;;;;;;;5054641;28;20033;-42
2022/06/25 15:13:25;;;;;;;2.25;1.10;;;;;;;;;;5054623;28;20063;-41